sensor_id;sensor_type;location;lat;lon;timestamp;P1;durP1;ratioP1;P2;durP2;ratioP2
19219;SDS011;9744;49.364;7.484;2023-07-29T00:00:19;6.15;;;3.00;;
19219;SDS011;9744;49.364;7.484;2023-07-29T00:02:47;5.43;;;3.40;;
19219;SDS011;9744;49.364;7.484;2023-07-29T00:05:14;3.55;;;3.17;;
19219;SDS011;9744;49.364;7.484;2023-07-29T00:07:41;3.60;;;3.20;;
19219;SDS011;9744;49.364;7.484;2023-07-29T00:10:10;10.30;;;3.42;;
19219;SDS011;9744;49.364;7.484;2023-07-29T00:12:37;9.95;;;3.15;;
19219;SDS011;9744;49.364;7.484;2023-07-29T00:15:05;6.75;;;3.20;;
19219;SDS011;9744;49.364;7.484;2023-07-29T00:17:32;5.65;;;3.50;;
19219;SDS011;9744;49.364;7.484;2023-07-29T00:20:00;4.72;;;3.58;;
19219;SDS011;9744;49.364;7.484;2023-07-29T00:22:27;4.15;;;3.17;;
19219;SDS011;9744;49.364;7.484;2023-07-29T00:24:55;3.33;;;3.03;;
19219;SDS011;9744;49.364;7.484;2023-07-29T00:27:24;7.07;;;2.85;;
19219;SDS011;9744;49.364;7.484;2023-07-29T00:29:54;7.25;;;3.63;;
19219;SDS011;9744;49.364;7.484;2023-07-29T00:32:21;2.90;;;2.63;;
19219;SDS011;9744;49.364;7.484;2023-07-29T00:34:48;6.32;;;2.40;;
19219;SDS011;9744;49.364;7.484;2023-07-29T00:37:15;3.85;;;2.78;;
19219;SDS011;9744;49.364;7.484;2023-07-29T00:39:45;3.22;;;2.50;;
19219;SDS011;9744;49.364;7.484;2023-07-29T00:42:12;3.75;;;2.47;;
19219;SDS011;9744;49.364;7.484;2023-07-29T00:44:42;4.28;;;2.40;;
19219;SDS011;9744;49.364;7.484;2023-07-29T00:47:09;8.40;;;2.22;;
19219;SDS011;9744;49.364;7.484;2023-07-29T00:49:39;4.97;;;2.40;;
19219;SDS011;9744;49.364;7.484;2023-07-29T00:52:06;2.83;;;2.28;;
19219;SDS011;9744;49.364;7.484;2023-07-29T00:54:36;2.45;;;2.25;;
19219;SDS011;9744;49.364;7.484;2023-07-29T00:57:04;4.53;;;2.42;;
19219;SDS011;9744;49.364;7.484;2023-07-29T00:59:32;4.32;;;2.30;;
19219;SDS011;9744;49.364;7.484;2023-07-29T01:02:02;5.00;;;2.53;;
19219;SDS011;9744;49.364;7.484;2023-07-29T01:04:32;3.50;;;2.10;;
19219;SDS011;9744;49.364;7.484;2023-07-29T01:07:01;3.70;;;2.50;;
19219;SDS011;9744;49.364;7.484;2023-07-29T01:09:35;5.80;;;2.35;;
19219;SDS011;9744;49.364;7.484;2023-07-29T01:12:08;2.65;;;2.25;;
19219;SDS011;9744;49.364;7.484;2023-07-29T01:14:41;4.18;;;2.40;;
19219;SDS011;9744;49.364;7.484;2023-07-29T01:17:19;2.40;;;2.20;;
19219;SDS011;9744;49.364;7.484;2023-07-29T01:19:55;5.05;;;2.40;;
19219;SDS011;9744;49.364;7.484;2023-07-29T01:22:28;4.60;;;2.20;;
19219;SDS011;9744;49.364;7.484;2023-07-29T01:24:59;3.85;;;2.50;;
19219;SDS011;9744;49.364;7.484;2023-07-29T01:27:27;2.55;;;2.35;;
19219;SDS011;9744;49.364;7.484;2023-07-29T01:29:54;3.75;;;2.17;;
19219;SDS011;9744;49.364;7.484;2023-07-29T01:32:24;7.40;;;2.60;;
19219;SDS011;9744;49.364;7.484;2023-07-29T01:34:56;2.80;;;2.60;;
19219;SDS011;9744;49.364;7.484;2023-07-29T01:37:34;5.80;;;2.22;;
19219;SDS011;9744;49.364;7.484;2023-07-29T01:40:07;3.90;;;2.10;;
19219;SDS011;9744;49.364;7.484;2023-07-29T01:42:37;4.63;;;2.33;;
19219;SDS011;9744;49.364;7.484;2023-07-29T01:45:05;8.57;;;2.10;;
19219;SDS011;9744;49.364;7.484;2023-07-29T01:47:32;5.10;;;2.35;;
19219;SDS011;9744;49.364;7.484;2023-07-29T01:50:00;6.93;;;2.50;;
19219;SDS011;9744;49.364;7.484;2023-07-29T01:52:29;4.65;;;2.30;;
19219;SDS011;9744;49.364;7.484;2023-07-29T01:54:56;6.40;;;2.13;;
19219;SDS011;9744;49.364;7.484;2023-07-29T01:57:24;3.85;;;2.30;;
19219;SDS011;9744;49.364;7.484;2023-07-29T01:59:52;6.32;;;2.50;;
19219;SDS011;9744;49.364;7.484;2023-07-29T02:02:19;4.28;;;2.50;;
19219;SDS011;9744;49.364;7.484;2023-07-29T02:04:46;4.57;;;2.53;;
19219;SDS011;9744;49.364;7.484;2023-07-29T02:07:17;3.45;;;2.72;;
19219;SDS011;9744;49.364;7.484;2023-07-29T02:09:44;5.38;;;2.65;;
19219;SDS011;9744;49.364;7.484;2023-07-29T02:12:11;4.60;;;2.95;;
19219;SDS011;9744;49.364;7.484;2023-07-29T02:14:40;8.07;;;2.67;;
19219;SDS011;9744;49.364;7.484;2023-07-29T02:17:07;3.13;;;2.70;;
19219;SDS011;9744;49.364;7.484;2023-07-29T02:19:34;3.60;;;2.97;;
19219;SDS011;9744;49.364;7.484;2023-07-29T02:22:02;4.93;;;2.83;;
19219;SDS011;9744;49.364;7.484;2023-07-29T02:24:29;6.57;;;3.10;;
19219;SDS011;9744;49.364;7.484;2023-07-29T02:26:57;3.00;;;2.58;;
19219;SDS011;9744;49.364;7.484;2023-07-29T02:29:24;6.10;;;2.92;;
19219;SDS011;9744;49.364;7.484;2023-07-29T02:31:53;3.95;;;3.03;;
19219;SDS011;9744;49.364;7.484;2023-07-29T02:34:20;6.03;;;3.03;;
19219;SDS011;9744;49.364;7.484;2023-07-29T02:36:47;6.32;;;3.28;;
19219;SDS011;9744;49.364;7.484;2023-07-29T02:39:15;4.93;;;2.90;;
19219;SDS011;9744;49.364;7.484;2023-07-29T02:41:42;4.15;;;3.30;;
19219;SDS011;9744;49.364;7.484;2023-07-29T02:44:09;7.15;;;3.88;;
19219;SDS011;9744;49.364;7.484;2023-07-29T02:46:36;6.93;;;3.67;;
19219;SDS011;9744;49.364;7.484;2023-07-29T02:49:05;8.00;;;3.30;;
19219;SDS011;9744;49.364;7.484;2023-07-29T02:51:33;8.25;;;3.88;;
19219;SDS011;9744;49.364;7.484;2023-07-29T02:54:00;6.65;;;3.80;;
19219;SDS011;9744;49.364;7.484;2023-07-29T02:56:28;5.75;;;3.92;;
19219;SDS011;9744;49.364;7.484;2023-07-29T02:58:56;12.00;;;5.35;;
19219;SDS011;9744;49.364;7.484;2023-07-29T03:01:23;7.85;;;3.95;;
19219;SDS011;9744;49.364;7.484;2023-07-29T03:03:51;7.38;;;3.65;;
19219;SDS011;9744;49.364;7.484;2023-07-29T03:06:20;7.72;;;3.92;;
19219;SDS011;9744;49.364;7.484;2023-07-29T03:08:47;4.78;;;3.40;;
19219;SDS011;9744;49.364;7.484;2023-07-29T03:11:15;5.07;;;3.53;;
19219;SDS011;9744;49.364;7.484;2023-07-29T03:13:43;6.15;;;3.80;;
19219;SDS011;9744;49.364;7.484;2023-07-29T03:16:11;10.32;;;3.80;;
19219;SDS011;9744;49.364;7.484;2023-07-29T03:18:43;7.95;;;3.53;;
19219;SDS011;9744;49.364;7.484;2023-07-29T03:21:11;6.93;;;3.33;;
19219;SDS011;9744;49.364;7.484;2023-07-29T03:23:40;7.47;;;3.45;;
19219;SDS011;9744;49.364;7.484;2023-07-29T03:26:07;4.70;;;3.63;;
19219;SDS011;9744;49.364;7.484;2023-07-29T03:28:37;12.57;;;3.53;;
19219;SDS011;9744;49.364;7.484;2023-07-29T03:31:05;5.15;;;3.88;;
19219;SDS011;9744;49.364;7.484;2023-07-29T03:33:33;8.25;;;3.55;;
19219;SDS011;9744;49.364;7.484;2023-07-29T03:36:00;6.60;;;3.45;;
19219;SDS011;9744;49.364;7.484;2023-07-29T03:38:28;9.93;;;3.60;;
19219;SDS011;9744;49.364;7.484;2023-07-29T03:40:56;7.68;;;3.63;;
19219;SDS011;9744;49.364;7.484;2023-07-29T03:43:24;6.13;;;3.60;;
19219;SDS011;9744;49.364;7.484;2023-07-29T03:45:53;5.45;;;3.60;;
19219;SDS011;9744;49.364;7.484;2023-07-29T03:48:21;4.50;;;3.97;;
19219;SDS011;9744;49.364;7.484;2023-07-29T03:50:48;8.38;;;3.53;;
19219;SDS011;9744;49.364;7.484;2023-07-29T03:53:15;5.43;;;3.60;;
19219;SDS011;9744;49.364;7.484;2023-07-29T03:55:43;6.75;;;3.80;;
19219;SDS011;9744;49.364;7.484;2023-07-29T03:58:12;8.00;;;3.45;;
19219;SDS011;9744;49.364;7.484;2023-07-29T04:00:39;7.65;;;4.00;;
19219;SDS011;9744;49.364;7.484;2023-07-29T04:03:06;5.45;;;4.13;;
19219;SDS011;9744;49.364;7.484;2023-07-29T04:05:35;6.75;;;4.25;;
19219;SDS011;9744;49.364;7.484;2023-07-29T04:08:02;8.98;;;4.35;;
19219;SDS011;9744;49.364;7.484;2023-07-29T04:10:29;12.07;;;4.43;;
19219;SDS011;9744;49.364;7.484;2023-07-29T04:12:57;8.45;;;4.40;;
19219;SDS011;9744;49.364;7.484;2023-07-29T04:15:26;6.82;;;4.57;;
19219;SDS011;9744;49.364;7.484;2023-07-29T04:17:53;6.78;;;4.68;;
19219;SDS011;9744;49.364;7.484;2023-07-29T04:20:21;9.30;;;5.05;;
19219;SDS011;9744;49.364;7.484;2023-07-29T04:22:48;6.82;;;4.45;;
19219;SDS011;9744;49.364;7.484;2023-07-29T04:25:15;7.03;;;4.47;;
19219;SDS011;9744;49.364;7.484;2023-07-29T04:27:42;7.00;;;4.53;;
19219;SDS011;9744;49.364;7.484;2023-07-29T04:30:11;7.35;;;4.43;;
19219;SDS011;9744;49.364;7.484;2023-07-29T04:32:39;9.05;;;4.53;;
19219;SDS011;9744;49.364;7.484;2023-07-29T04:35:07;14.57;;;4.88;;
19219;SDS011;9744;49.364;7.484;2023-07-29T04:37:36;9.95;;;5.22;;
19219;SDS011;9744;49.364;7.484;2023-07-29T04:40:04;9.23;;;4.90;;
19219;SDS011;9744;49.364;7.484;2023-07-29T04:42:32;10.32;;;5.15;;
19219;SDS011;9744;49.364;7.484;2023-07-29T04:45:01;10.90;;;4.97;;
19219;SDS011;9744;49.364;7.484;2023-07-29T04:47:31;7.63;;;4.50;;
19219;SDS011;9744;49.364;7.484;2023-07-29T04:50:00;7.85;;;4.78;;
19219;SDS011;9744;49.364;7.484;2023-07-29T04:52:27;12.65;;;5.20;;
19219;SDS011;9744;49.364;7.484;2023-07-29T04:54:55;8.88;;;5.38;;
19219;SDS011;9744;49.364;7.484;2023-07-29T04:57:22;7.70;;;5.15;;
19219;SDS011;9744;49.364;7.484;2023-07-29T04:59:49;12.70;;;5.53;;
19219;SDS011;9744;49.364;7.484;2023-07-29T05:02:16;10.10;;;5.65;;
19219;SDS011;9744;49.364;7.484;2023-07-29T05:04:44;9.25;;;6.43;;
19219;SDS011;9744;49.364;7.484;2023-07-29T05:07:12;10.13;;;6.03;;
19219;SDS011;9744;49.364;7.484;2023-07-29T05:09:40;13.10;;;6.72;;
19219;SDS011;9744;49.364;7.484;2023-07-29T05:12:07;12.05;;;7.13;;
19219;SDS011;9744;49.364;7.484;2023-07-29T05:14:35;11.38;;;7.07;;
19219;SDS011;9744;49.364;7.484;2023-07-29T05:17:02;9.48;;;6.93;;
19219;SDS011;9744;49.364;7.484;2023-07-29T05:19:29;10.45;;;6.95;;
19219;SDS011;9744;49.364;7.484;2023-07-29T05:21:57;10.90;;;7.80;;
19219;SDS011;9744;49.364;7.484;2023-07-29T05:24:25;11.35;;;7.70;;
19219;SDS011;9744;49.364;7.484;2023-07-29T05:26:52;13.68;;;8.10;;
19219;SDS011;9744;49.364;7.484;2023-07-29T05:29:20;10.70;;;7.70;;
19219;SDS011;9744;49.364;7.484;2023-07-29T05:31:47;9.43;;;6.82;;
19219;SDS011;9744;49.364;7.484;2023-07-29T05:34:15;8.75;;;7.28;;
19219;SDS011;9744;49.364;7.484;2023-07-29T05:36:42;10.70;;;7.20;;
19219;SDS011;9744;49.364;7.484;2023-07-29T05:39:10;8.82;;;6.53;;
19219;SDS011;9744;49.364;7.484;2023-07-29T05:41:39;8.55;;;6.95;;
19219;SDS011;9744;49.364;7.484;2023-07-29T05:44:07;8.73;;;7.82;;
19219;SDS011;9744;49.364;7.484;2023-07-29T05:46:34;9.50;;;7.38;;
19219;SDS011;9744;49.364;7.484;2023-07-29T05:49:01;10.05;;;7.45;;
19219;SDS011;9744;49.364;7.484;2023-07-29T05:51:29;8.38;;;7.05;;
19219;SDS011;9744;49.364;7.484;2023-07-29T05:53:57;9.18;;;6.05;;
19219;SDS011;9744;49.364;7.484;2023-07-29T05:56:24;11.00;;;6.22;;
19219;SDS011;9744;49.364;7.484;2023-07-29T05:58:53;9.02;;;6.00;;
19219;SDS011;9744;49.364;7.484;2023-07-29T06:01:20;8.73;;;6.47;;
19219;SDS011;9744;49.364;7.484;2023-07-29T06:03:47;11.00;;;6.47;;
19219;SDS011;9744;49.364;7.484;2023-07-29T06:06:17;8.15;;;6.78;;
19219;SDS011;9744;49.364;7.484;2023-07-29T06:08:45;11.43;;;7.90;;
19219;SDS011;9744;49.364;7.484;2023-07-29T06:11:12;12.52;;;7.75;;
19219;SDS011;9744;49.364;7.484;2023-07-29T06:13:39;13.40;;;7.72;;
19219;SDS011;9744;49.364;7.484;2023-07-29T06:16:08;7.78;;;6.53;;
19219;SDS011;9744;49.364;7.484;2023-07-29T06:18:37;8.80;;;6.40;;
19219;SDS011;9744;49.364;7.484;2023-07-29T06:21:05;11.75;;;6.78;;
19219;SDS011;9744;49.364;7.484;2023-07-29T06:23:33;9.13;;;6.50;;
19219;SDS011;9744;49.364;7.484;2023-07-29T06:26:01;9.07;;;6.82;;
19219;SDS011;9744;49.364;7.484;2023-07-29T06:28:29;9.30;;;6.95;;
19219;SDS011;9744;49.364;7.484;2023-07-29T06:30:56;9.73;;;7.15;;
19219;SDS011;9744;49.364;7.484;2023-07-29T06:33:25;11.82;;;7.25;;
19219;SDS011;9744;49.364;7.484;2023-07-29T06:35:52;10.68;;;7.47;;
19219;SDS011;9744;49.364;7.484;2023-07-29T06:38:19;8.75;;;7.22;;
19219;SDS011;9744;49.364;7.484;2023-07-29T06:40:47;8.70;;;6.93;;
19219;SDS011;9744;49.364;7.484;2023-07-29T06:43:14;10.10;;;6.78;;
19219;SDS011;9744;49.364;7.484;2023-07-29T06:45:41;10.20;;;6.38;;
19219;SDS011;9744;49.364;7.484;2023-07-29T06:48:09;8.15;;;6.85;;
19219;SDS011;9744;49.364;7.484;2023-07-29T06:50:38;7.35;;;6.30;;
19219;SDS011;9744;49.364;7.484;2023-07-29T06:53:05;10.40;;;6.38;;
19219;SDS011;9744;49.364;7.484;2023-07-29T06:55:32;7.35;;;6.03;;
19219;SDS011;9744;49.364;7.484;2023-07-29T06:58:00;8.73;;;6.18;;
19219;SDS011;9744;49.364;7.484;2023-07-29T07:00:27;6.55;;;5.47;;
19219;SDS011;9744;49.364;7.484;2023-07-29T07:02:55;7.53;;;6.10;;
19219;SDS011;9744;49.364;7.484;2023-07-29T07:05:22;10.68;;;5.57;;
19219;SDS011;9744;49.364;7.484;2023-07-29T07:07:51;7.68;;;4.90;;
19219;SDS011;9744;49.364;7.484;2023-07-29T07:10:18;6.68;;;5.00;;
19219;SDS011;9744;49.364;7.484;2023-07-29T07:12:46;6.80;;;4.75;;
19219;SDS011;9744;49.364;7.484;2023-07-29T07:15:13;4.95;;;4.55;;
19219;SDS011;9744;49.364;7.484;2023-07-29T07:17:40;9.38;;;4.45;;
19219;SDS011;9744;49.364;7.484;2023-07-29T07:20:08;6.20;;;4.13;;
19219;SDS011;9744;49.364;7.484;2023-07-29T07:22:35;5.78;;;4.00;;
19219;SDS011;9744;49.364;7.484;2023-07-29T07:25:04;4.97;;;3.80;;
19219;SDS011;9744;49.364;7.484;2023-07-29T07:27:32;5.20;;;3.88;;
19219;SDS011;9744;49.364;7.484;2023-07-29T07:29:59;5.85;;;4.07;;
19219;SDS011;9744;49.364;7.484;2023-07-29T07:32:27;4.28;;;3.40;;
19219;SDS011;9744;49.364;7.484;2023-07-29T07:34:54;5.40;;;3.00;;
19219;SDS011;9744;49.364;7.484;2023-07-29T07:37:22;4.75;;;3.35;;
19219;SDS011;9744;49.364;7.484;2023-07-29T07:39:50;4.03;;;2.80;;
19219;SDS011;9744;49.364;7.484;2023-07-29T07:42:18;3.65;;;3.00;;
19219;SDS011;9744;49.364;7.484;2023-07-29T07:44:45;3.45;;;2.95;;
19219;SDS011;9744;49.364;7.484;2023-07-29T07:47:13;10.70;;;3.10;;
19219;SDS011;9744;49.364;7.484;2023-07-29T07:49:40;5.95;;;3.33;;
19219;SDS011;9744;49.364;7.484;2023-07-29T07:52:07;6.22;;;3.20;;
19219;SDS011;9744;49.364;7.484;2023-07-29T07:54:35;5.40;;;3.42;;
19219;SDS011;9744;49.364;7.484;2023-07-29T07:57:02;3.42;;;2.35;;
19219;SDS011;9744;49.364;7.484;2023-07-29T07:59:31;4.15;;;2.60;;
19219;SDS011;9744;49.364;7.484;2023-07-29T08:01:59;5.97;;;2.42;;
19219;SDS011;9744;49.364;7.484;2023-07-29T08:04:26;7.88;;;2.50;;
19219;SDS011;9744;49.364;7.484;2023-07-29T08:06:53;4.63;;;2.53;;
19219;SDS011;9744;49.364;7.484;2023-07-29T08:09:21;6.28;;;2.42;;
19219;SDS011;9744;49.364;7.484;2023-07-29T08:11:48;4.60;;;2.05;;
19219;SDS011;9744;49.364;7.484;2023-07-29T08:14:15;2.75;;;2.15;;
19219;SDS011;9744;49.364;7.484;2023-07-29T08:16:44;3.47;;;2.00;;
19219;SDS011;9744;49.364;7.484;2023-07-29T08:19:11;2.00;;;1.60;;
19219;SDS011;9744;49.364;7.484;2023-07-29T08:21:38;4.50;;;1.98;;
19219;SDS011;9744;49.364;7.484;2023-07-29T08:24:06;2.55;;;1.88;;
19219;SDS011;9744;49.364;7.484;2023-07-29T08:26:33;4.38;;;2.13;;
19219;SDS011;9744;49.364;7.484;2023-07-29T08:29:00;4.22;;;1.98;;
19219;SDS011;9744;49.364;7.484;2023-07-29T08:31:27;3.75;;;1.88;;
19219;SDS011;9744;49.364;7.484;2023-07-29T08:33:57;2.45;;;1.80;;
19219;SDS011;9744;49.364;7.484;2023-07-29T08:36:24;4.68;;;1.55;;
19219;SDS011;9744;49.364;7.484;2023-07-29T08:38:51;2.60;;;1.63;;
19219;SDS011;9744;49.364;7.484;2023-07-29T08:41:19;3.72;;;1.20;;
19219;SDS011;9744;49.364;7.484;2023-07-29T08:43:52;2.42;;;1.27;;
19219;SDS011;9744;49.364;7.484;2023-07-29T08:46:26;4.43;;;1.38;;
19219;SDS011;9744;49.364;7.484;2023-07-29T08:48:55;2.15;;;1.00;;
19219;SDS011;9744;49.364;7.484;2023-07-29T08:51:24;3.15;;;1.38;;
19219;SDS011;9744;49.364;7.484;2023-07-29T08:53:53;2.35;;;1.17;;
19219;SDS011;9744;49.364;7.484;2023-07-29T08:56:21;2.80;;;1.10;;
19219;SDS011;9744;49.364;7.484;2023-07-29T08:58:48;1.30;;;1.10;;
19219;SDS011;9744;49.364;7.484;2023-07-29T09:01:16;1.00;;;1.00;;
19219;SDS011;9744;49.364;7.484;2023-07-29T09:03:43;2.65;;;1.00;;
19219;SDS011;9744;49.364;7.484;2023-07-29T09:06:12;9.70;;;1.13;;
19219;SDS011;9744;49.364;7.484;2023-07-29T09:08:41;5.65;;;1.10;;
19219;SDS011;9744;49.364;7.484;2023-07-29T09:11:09;4.45;;;1.30;;
19219;SDS011;9744;49.364;7.484;2023-07-29T09:13:36;0.80;;;0.80;;
19219;SDS011;9744;49.364;7.484;2023-07-29T09:16:04;2.15;;;0.90;;
19219;SDS011;9744;49.364;7.484;2023-07-29T09:18:31;3.45;;;1.17;;
19219;SDS011;9744;49.364;7.484;2023-07-29T09:20:59;1.73;;;0.80;;
19219;SDS011;9744;49.364;7.484;2023-07-29T09:23:28;0.77;;;0.77;;
19219;SDS011;9744;49.364;7.484;2023-07-29T09:26:04;2.45;;;1.13;;
19219;SDS011;9744;49.364;7.484;2023-07-29T09:28:32;2.65;;;1.08;;
19219;SDS011;9744;49.364;7.484;2023-07-29T09:31:01;1.63;;;0.88;;
19219;SDS011;9744;49.364;7.484;2023-07-29T09:33:28;3.22;;;1.05;;
19219;SDS011;9744;49.364;7.484;2023-07-29T09:35:56;7.00;;;1.10;;
19219;SDS011;9744;49.364;7.484;2023-07-29T09:38:26;1.63;;;1.10;;
19219;SDS011;9744;49.364;7.484;2023-07-29T09:40:56;2.30;;;0.90;;
19219;SDS011;9744;49.364;7.484;2023-07-29T09:43:28;2.72;;;1.00;;
19219;SDS011;9744;49.364;7.484;2023-07-29T09:45:59;2.72;;;0.85;;
19219;SDS011;9744;49.364;7.484;2023-07-29T09:48:27;2.05;;;1.02;;
19219;SDS011;9744;49.364;7.484;2023-07-29T09:50:59;7.43;;;0.95;;
19219;SDS011;9744;49.364;7.484;2023-07-29T09:53:26;1.67;;;0.90;;
19219;SDS011;9744;49.364;7.484;2023-07-29T09:55:53;2.15;;;0.90;;
19219;SDS011;9744;49.364;7.484;2023-07-29T09:58:25;1.67;;;1.10;;
19219;SDS011;9744;49.364;7.484;2023-07-29T10:00:53;1.30;;;0.90;;
19219;SDS011;9744;49.364;7.484;2023-07-29T10:03:22;0.80;;;0.80;;
19219;SDS011;9744;49.364;7.484;2023-07-29T10:05:50;2.55;;;0.95;;
19219;SDS011;9744;49.364;7.484;2023-07-29T10:08:18;2.70;;;0.98;;
19219;SDS011;9744;49.364;7.484;2023-07-29T10:10:46;3.47;;;0.93;;
19219;SDS011;9744;49.364;7.484;2023-07-29T10:13:17;2.67;;;1.05;;
19219;SDS011;9744;49.364;7.484;2023-07-29T10:15:44;1.05;;;0.80;;
19219;SDS011;9744;49.364;7.484;2023-07-29T10:18:13;1.75;;;0.90;;
19219;SDS011;9744;49.364;7.484;2023-07-29T10:20:41;2.25;;;1.00;;
19219;SDS011;9744;49.364;7.484;2023-07-29T10:23:10;3.60;;;0.90;;
19219;SDS011;9744;49.364;7.484;2023-07-29T10:25:40;1.40;;;0.75;;
19219;SDS011;9744;49.364;7.484;2023-07-29T10:28:13;2.88;;;1.33;;
19219;SDS011;9744;49.364;7.484;2023-07-29T10:30:43;0.80;;;0.80;;
19219;SDS011;9744;49.364;7.484;2023-07-29T10:33:11;2.05;;;0.65;;
19219;SDS011;9744;49.364;7.484;2023-07-29T10:35:39;1.40;;;0.80;;
19219;SDS011;9744;49.364;7.484;2023-07-29T10:38:06;0.90;;;0.73;;
19219;SDS011;9744;49.364;7.484;2023-07-29T10:40:44;5.43;;;1.30;;
19219;SDS011;9744;49.364;7.484;2023-07-29T10:43:14;1.17;;;1.08;;
19219;SDS011;9744;49.364;7.484;2023-07-29T10:45:47;0.80;;;0.70;;
19219;SDS011;9744;49.364;7.484;2023-07-29T10:51:21;1.20;;;1.10;;
19219;SDS011;9744;49.364;7.484;2023-07-29T10:53:51;2.30;;;0.95;;
19219;SDS011;9744;49.364;7.484;2023-07-29T10:56:24;1.15;;;0.80;;
19219;SDS011;9744;49.364;7.484;2023-07-29T10:58:56;2.05;;;1.25;;
19219;SDS011;9744;49.364;7.484;2023-07-29T11:01:30;1.00;;;0.80;;
19219;SDS011;9744;49.364;7.484;2023-07-29T11:09:52;0.95;;;0.80;;
19219;SDS011;9744;49.364;7.484;2023-07-29T11:15:16;2.75;;;1.15;;
19219;SDS011;9744;49.364;7.484;2023-07-29T11:17:47;2.63;;;1.00;;
19219;SDS011;9744;49.364;7.484;2023-07-29T11:20:16;1.10;;;0.80;;
19219;SDS011;9744;49.364;7.484;2023-07-29T11:22:44;1.20;;;0.90;;
19219;SDS011;9744;49.364;7.484;2023-07-29T11:25:13;0.77;;;0.77;;
19219;SDS011;9744;49.364;7.484;2023-07-29T11:27:41;1.13;;;0.68;;
19219;SDS011;9744;49.364;7.484;2023-07-29T11:30:09;0.70;;;0.70;;
19219;SDS011;9744;49.364;7.484;2023-07-29T11:32:38;2.97;;;1.08;;
19219;SDS011;9744;49.364;7.484;2023-07-29T11:35:09;1.55;;;0.90;;
19219;SDS011;9744;49.364;7.484;2023-07-29T11:37:38;3.88;;;0.80;;
19219;SDS011;9744;49.364;7.484;2023-07-29T11:40:06;5.15;;;1.10;;
19219;SDS011;9744;49.364;7.484;2023-07-29T11:42:36;4.97;;;0.70;;
19219;SDS011;9744;49.364;7.484;2023-07-29T11:45:04;1.20;;;1.10;;
19219;SDS011;9744;49.364;7.484;2023-07-29T11:47:33;2.00;;;1.10;;
19219;SDS011;9744;49.364;7.484;2023-07-29T11:50:02;4.00;;;1.05;;
19219;SDS011;9744;49.364;7.484;2023-07-29T11:52:32;3.83;;;0.93;;
19219;SDS011;9744;49.364;7.484;2023-07-29T11:55:00;1.25;;;1.10;;
19219;SDS011;9744;49.364;7.484;2023-07-29T11:57:28;0.70;;;0.70;;
19219;SDS011;9744;49.364;7.484;2023-07-29T11:59:56;1.45;;;1.00;;
19219;SDS011;9744;49.364;7.484;2023-07-29T12:02:23;1.90;;;1.05;;
19219;SDS011;9744;49.364;7.484;2023-07-29T12:04:52;1.42;;;0.80;;
19219;SDS011;9744;49.364;7.484;2023-07-29T12:07:19;3.20;;;0.90;;
19219;SDS011;9744;49.364;7.484;2023-07-29T12:09:49;2.88;;;0.80;;
19219;SDS011;9744;49.364;7.484;2023-07-29T12:12:17;2.08;;;1.05;;
19219;SDS011;9744;49.364;7.484;2023-07-29T12:14:44;2.85;;;0.90;;
19219;SDS011;9744;49.364;7.484;2023-07-29T12:17:12;1.05;;;0.95;;
19219;SDS011;9744;49.364;7.484;2023-07-29T12:19:40;1.30;;;0.90;;
19219;SDS011;9744;49.364;7.484;2023-07-29T12:22:09;1.20;;;0.90;;
19219;SDS011;9744;49.364;7.484;2023-07-29T12:24:37;1.00;;;0.85;;
19219;SDS011;9744;49.364;7.484;2023-07-29T12:27:09;4.10;;;1.10;;
19219;SDS011;9744;49.364;7.484;2023-07-29T12:29:41;0.70;;;0.65;;
19219;SDS011;9744;49.364;7.484;2023-07-29T12:32:11;1.27;;;0.90;;
19219;SDS011;9744;49.364;7.484;2023-07-29T12:34:39;1.30;;;0.95;;
19219;SDS011;9744;49.364;7.484;2023-07-29T12:37:06;1.23;;;0.77;;
19219;SDS011;9744;49.364;7.484;2023-07-29T12:39:34;1.05;;;0.98;;
19219;SDS011;9744;49.364;7.484;2023-07-29T12:42:07;2.25;;;0.90;;
19219;SDS011;9744;49.364;7.484;2023-07-29T12:44:35;1.30;;;0.93;;
19219;SDS011;9744;49.364;7.484;2023-07-29T12:47:04;1.42;;;0.95;;
19219;SDS011;9744;49.364;7.484;2023-07-29T12:49:34;1.30;;;1.02;;
19219;SDS011;9744;49.364;7.484;2023-07-29T12:52:01;1.05;;;1.00;;
19219;SDS011;9744;49.364;7.484;2023-07-29T12:54:28;1.73;;;0.90;;
19219;SDS011;9744;49.364;7.484;2023-07-29T12:56:55;2.42;;;1.13;;
19219;SDS011;9744;49.364;7.484;2023-07-29T12:59:24;1.20;;;1.10;;
19219;SDS011;9744;49.364;7.484;2023-07-29T13:01:55;2.08;;;1.05;;
19219;SDS011;9744;49.364;7.484;2023-07-29T13:04:22;3.63;;;1.00;;
19219;SDS011;9744;49.364;7.484;2023-07-29T13:06:49;2.85;;;0.85;;
19219;SDS011;9744;49.364;7.484;2023-07-29T13:09:16;2.60;;;1.20;;
19219;SDS011;9744;49.364;7.484;2023-07-29T13:11:44;3.63;;;1.20;;
19219;SDS011;9744;49.364;7.484;2023-07-29T13:14:11;1.35;;;1.10;;
19219;SDS011;9744;49.364;7.484;2023-07-29T13:16:40;0.70;;;0.70;;
19219;SDS011;9744;49.364;7.484;2023-07-29T13:19:07;1.60;;;1.10;;
19219;SDS011;9744;49.364;7.484;2023-07-29T13:21:34;1.23;;;1.10;;
19219;SDS011;9744;49.364;7.484;2023-07-29T13:24:01;1.30;;;1.15;;
19219;SDS011;9744;49.364;7.484;2023-07-29T13:26:31;1.15;;;1.00;;
19219;SDS011;9744;49.364;7.484;2023-07-29T13:28:59;1.27;;;1.00;;
19219;SDS011;9744;49.364;7.484;2023-07-29T13:31:26;2.53;;;1.23;;
19219;SDS011;9744;49.364;7.484;2023-07-29T13:33:54;4.00;;;1.23;;
19219;SDS011;9744;49.364;7.484;2023-07-29T13:36:22;1.40;;;0.98;;
19219;SDS011;9744;49.364;7.484;2023-07-29T13:38:50;3.00;;;1.00;;
19219;SDS011;9744;49.364;7.484;2023-07-29T13:41:17;1.95;;;1.20;;
19219;SDS011;9744;49.364;7.484;2023-07-29T13:43:45;5.15;;;1.00;;
19219;SDS011;9744;49.364;7.484;2023-07-29T13:46:12;3.67;;;0.80;;
19219;SDS011;9744;49.364;7.484;2023-07-29T13:48:39;1.13;;;1.02;;
19219;SDS011;9744;49.364;7.484;2023-07-29T13:51:08;3.95;;;1.10;;
19219;SDS011;9744;49.364;7.484;2023-07-29T13:53:35;2.03;;;1.15;;
19219;SDS011;9744;49.364;7.484;2023-07-29T13:56:02;5.07;;;1.10;;
19219;SDS011;9744;49.364;7.484;2023-07-29T13:58:31;1.30;;;1.20;;
19219;SDS011;9744;49.364;7.484;2023-07-29T14:01:00;1.38;;;1.20;;
19219;SDS011;9744;49.364;7.484;2023-07-29T14:03:28;5.40;;;1.20;;
19219;SDS011;9744;49.364;7.484;2023-07-29T14:05:55;2.08;;;0.98;;
19219;SDS011;9744;49.364;7.484;2023-07-29T14:08:24;6.82;;;1.15;;
19219;SDS011;9744;49.364;7.484;2023-07-29T14:10:52;1.83;;;1.20;;
19219;SDS011;9744;49.364;7.484;2023-07-29T14:13:19;1.73;;;1.20;;
19219;SDS011;9744;49.364;7.484;2023-07-29T14:15:46;1.67;;;1.00;;
19219;SDS011;9744;49.364;7.484;2023-07-29T14:18:14;1.20;;;1.00;;
19219;SDS011;9744;49.364;7.484;2023-07-29T14:20:41;1.27;;;1.00;;
19219;SDS011;9744;49.364;7.484;2023-07-29T14:23:08;2.92;;;1.20;;
19219;SDS011;9744;49.364;7.484;2023-07-29T14:25:37;1.27;;;1.17;;
19219;SDS011;9744;49.364;7.484;2023-07-29T14:28:04;2.97;;;1.15;;
19219;SDS011;9744;49.364;7.484;2023-07-29T14:30:32;5.22;;;1.17;;
19219;SDS011;9744;49.364;7.484;2023-07-29T14:33:00;1.30;;;1.20;;
19219;SDS011;9744;49.364;7.484;2023-07-29T14:35:28;1.52;;;1.10;;
19219;SDS011;9744;49.364;7.484;2023-07-29T14:37:56;4.70;;;1.83;;
19219;SDS011;9744;49.364;7.484;2023-07-29T14:40:24;2.75;;;1.30;;
19219;SDS011;9744;49.364;7.484;2023-07-29T14:42:55;2.45;;;1.60;;
19219;SDS011;9744;49.364;7.484;2023-07-29T14:45:22;4.45;;;1.45;;
19219;SDS011;9744;49.364;7.484;2023-07-29T14:47:51;2.92;;;1.35;;
19219;SDS011;9744;49.364;7.484;2023-07-29T14:50:18;1.83;;;1.25;;
19219;SDS011;9744;49.364;7.484;2023-07-29T14:52:45;1.42;;;1.10;;
19219;SDS011;9744;49.364;7.484;2023-07-29T14:55:13;1.27;;;1.17;;
19219;SDS011;9744;49.364;7.484;2023-07-29T14:57:40;1.20;;;1.10;;
19219;SDS011;9744;49.364;7.484;2023-07-29T15:00:10;1.27;;;1.00;;
19219;SDS011;9744;49.364;7.484;2023-07-29T15:02:38;1.40;;;1.30;;
19219;SDS011;9744;49.364;7.484;2023-07-29T15:05:07;3.88;;;1.50;;
19219;SDS011;9744;49.364;7.484;2023-07-29T15:07:34;3.13;;;1.20;;
19219;SDS011;9744;49.364;7.484;2023-07-29T15:10:01;1.45;;;1.20;;
19219;SDS011;9744;49.364;7.484;2023-07-29T15:12:29;2.10;;;1.13;;
19219;SDS011;9744;49.364;7.484;2023-07-29T15:14:58;2.58;;;1.27;;
19219;SDS011;9744;49.364;7.484;2023-07-29T15:17:26;3.83;;;1.20;;